Vergas, MN (56587)

9:56 AM CDT on April 25, 2015 (GMT -0500)
Lake Crystal | | Change Station
CLOSE
Current Station
Personal Weather Station
Location: Pelican Rapids, MN
Elevation: 1342 ft
Nearby Weather Stations

Elev 1342 ft 46.61 °N, 95.96 °W | Updated 24 seconds ago

Overcast
Overcast
43.2 °F
Feels Like 42 °F
N
3.4
Wind Variable Wind from ENE
Gusts 4.9 mph

Today
High -- | Low -- °F
--% Chance of Precip.
Yesterday
High -- | Low -- °F
Precip. -- in
6:18 AM 8:24 PM
Waxing Crescent, 46% visible
Pressure 29.86 in
Visibility 10.0 miles
Clouds Mostly Cloudy 3900 ft
Windchill 42 °F
Dew Point 35 °F
Humidity 72%
Rainfall 0.00 in
Snow Depth Not available.
UV 2.0 out of 12
Pollen 8.50 out of 12
Air Quality Not available.
Flu Activity Local Activity
METAR KDTL 251435Z AUTO 12012KT 10SM BKN039 07/01 A2986 RMK AO2

More Conditions Fewer Conditions

Pressure 29.86 in
Visibility 10.0 miles
Clouds Mostly Cloudy 3900 ft
Windchill 42 °F
Dew Point 35 °F
Humidity 72%
Rainfall 0.00 in
Snow Depth Not available.
UV 2.0 out of 12
Pollen 8.50 out of 12
Air Quality Not available.
Flu Activity Local Activity
METAR KDTL 251435Z AUTO 12012KT 10SM BKN039 07/01 A2986 RMK AO2

More Conditions Fewer Conditions

10-Day Weather Forecast

Almanac

Astronomy

Apr. 25, 2015 Rise Set
Actual Time
Civil Twilight
Nautical Twilight
Astronomical Twilight
Moon
Length of Visible Light
Length of Day
Tomorrow will be .
, % of the Moon is Illuminated

Today's Extremes

State Highs State Lows

Community

WunderPhotos

Upload Photos

1,816,691 photos uploaded!

WunderBlogs® & News

Nearby

Air Quality

  Air Quality AQ Index Pollutant
Not available.

Snow Depth

Station Depth Elevation

Earthquake Activity

City Distance Mag. Time & Date
Minimum magnitude displayed is 2.5.

Coastal Water Temperatures

Place Temperature

Stations

Nearby Weather Stations

Station Location Temp. Windchill Dew Point Humidity Wind Precip. Elev Updated Type